RYR705 LEST-LEVC
Flight info
| Callsign | RYR705 |
|---|---|
| Flight time | 1h 8m |
| Altitude | 33000 |
| Route | FORNO DCT DESAT N733 ZMR DCT PDT M871 ABOSI |
| Aircraft | B738/M-SDE2E3FGHIRWXY/LB1 |
Departure
| Time | 2026-04-22 09:29 |
|---|---|
| Airport | Santiago-Rosalía de Castro Airport (LEST) |
Arrival
| Time | 2026-04-22 10:37 |
|---|---|
| Airport | Valencia Airport (LEVC) |
| Time | Latitude | Longitude | Altitude | Speed | Heading |
|---|---|---|---|---|---|
| 2026-04-22 09:01 | 42.89261 | -8.41821 | 1198 ft | 0 kts | 287° |
| 2026-04-22 09:21 | 42.89258 | -8.41801 | 1198 ft | 4 kts | 262° |
| 2026-04-22 09:21 | 42.89260 | -8.41777 | 1198 ft | 4 kts | 268° |
| 2026-04-22 09:21 | 42.89255 | -8.41733 | 1198 ft | 4 kts | 308° |
| 2026-04-22 09:22 | 42.89243 | -8.41718 | 1198 ft | 4 kts | 337° |
| 2026-04-22 09:22 | 42.89230 | -8.41713 | 1199 ft | 1 kts | 347° |
| 2026-04-22 09:22 | 42.89228 | -8.41712 | 1199 ft | 0 kts | 347° |
| 2026-04-22 09:24 | 42.89230 | -8.41713 | 1199 ft | 2 kts | 347° |
| 2026-04-22 09:24 | 42.89288 | -8.41730 | 1198 ft | 14 kts | 347° |
| 2026-04-22 09:24 | 42.89393 | -8.41766 | 1197 ft | 16 kts | 346° |
| 2026-04-22 09:25 | 42.89495 | -8.41719 | 1195 ft | 16 kts | 15° |
| 2026-04-22 09:25 | 42.89600 | -8.41735 | 1194 ft | 16 kts | 345° |
| 2026-04-22 09:25 | 42.89721 | -8.41778 | 1193 ft | 20 kts | 346° |
| 2026-04-22 09:25 | 42.89873 | -8.41828 | 1191 ft | 24 kts | 347° |
| 2026-04-22 09:26 | 42.90039 | -8.41882 | 1189 ft | 24 kts | 346° |
| 2026-04-22 09:26 | 42.90197 | -8.41935 | 1187 ft | 23 kts | 346° |
| 2026-04-22 09:26 | 42.90349 | -8.41987 | 1186 ft | 22 kts | 346° |
| 2026-04-22 09:26 | 42.90496 | -8.42036 | 1184 ft | 22 kts | 346° |
| 2026-04-22 09:27 | 42.90640 | -8.42085 | 1182 ft | 21 kts | 346° |
| 2026-04-22 09:27 | 42.90779 | -8.42131 | 1180 ft | 20 kts | 346° |
| 2026-04-22 09:27 | 42.90914 | -8.42176 | 1179 ft | 20 kts | 346° |
| 2026-04-22 09:27 | 42.91045 | -8.42220 | 1173 ft | 19 kts | 346° |
| 2026-04-22 09:28 | 42.91147 | -8.42159 | 1176 ft | 18 kts | 70° |
| 2026-04-22 09:28 | 42.91119 | -8.42009 | 1171 ft | 18 kts | 155° |
| 2026-04-22 09:28 | 42.91059 | -8.41991 | 1175 ft | 0 kts | 166° |
| 2026-04-22 09:28 | 42.90969 | -8.41960 | 1174 ft | 42 kts | 166° |
| 2026-04-22 09:29 | 42.90442 | -8.41784 | 1187 ft | 112 kts | 166° |
| 2026-04-22 09:29 | 42.89494 | -8.41464 | 1265 ft | 162 kts | 167° |
| 2026-04-22 09:29 | 42.88411 | -8.41079 | 2006 ft | 160 kts | 167° |
| 2026-04-22 09:29 | 42.87335 | -8.40697 | 2852 ft | 159 kts | 168° |
| 2026-04-22 09:30 | 42.86174 | -8.40316 | 3183 ft | 187 kts | 168° |
| 2026-04-22 09:30 | 42.84838 | -8.39846 | 3431 ft | 210 kts | 167° |
| 2026-04-22 09:30 | 42.83458 | -8.38903 | 3567 ft | 240 kts | 140° |
| 2026-04-22 09:30 | 42.82458 | -8.36944 | 3865 ft | 266 kts | 112° |
| 2026-04-22 09:31 | 42.82227 | -8.34416 | 4537 ft | 274 kts | 87° |
| 2026-04-22 09:31 | 42.82431 | -8.31814 | 5324 ft | 277 kts | 84° |
| 2026-04-22 09:31 | 42.82675 | -8.29199 | 6059 ft | 281 kts | 84° |
| 2026-04-22 09:31 | 42.82843 | -8.26529 | 6752 ft | 285 kts | 97° |
| 2026-04-22 09:32 | 42.82305 | -8.23960 | 7484 ft | 283 kts | 120° |
| 2026-04-22 09:32 | 42.81303 | -8.21639 | 8251 ft | 285 kts | 124° |
| 2026-04-22 09:32 | 42.80231 | -8.19347 | 8982 ft | 290 kts | 125° |
| 2026-04-22 09:32 | 42.79132 | -8.17024 | 9694 ft | 294 kts | 125° |
| 2026-04-22 09:33 | 42.78013 | -8.14663 | 10396 ft | 302 kts | 126° |
| 2026-04-22 09:33 | 42.76830 | -8.12165 | 10612 ft | 326 kts | 125° |
| 2026-04-22 09:33 | 42.75586 | -8.09519 | 11122 ft | 337 kts | 125° |
| 2026-04-22 09:33 | 42.74321 | -8.06813 | 11850 ft | 341 kts | 125° |
| 2026-04-22 09:34 | 42.73044 | -8.04074 | 12621 ft | 344 kts | 125° |
| 2026-04-22 09:34 | 42.71759 | -8.01313 | 13365 ft | 348 kts | 125° |
| 2026-04-22 09:34 | 42.70454 | -7.98512 | 14141 ft | 352 kts | 125° |
| 2026-04-22 09:35 | 42.67800 | -7.92819 | 15635 ft | 361 kts | 125° |
| 2026-04-22 09:35 | 42.66466 | -7.89963 | 16366 ft | 364 kts | 125° |
| 2026-04-22 09:35 | 42.65100 | -7.87037 | 17087 ft | 368 kts | 125° |
| 2026-04-22 09:35 | 42.63719 | -7.84082 | 17789 ft | 372 kts | 125° |
| 2026-04-22 09:36 | 42.62322 | -7.81097 | 18451 ft | 376 kts | 126° |
| 2026-04-22 09:36 | 42.60910 | -7.78084 | 19109 ft | 380 kts | 126° |
| 2026-04-22 09:36 | 42.59483 | -7.75042 | 19743 ft | 384 kts | 126° |
| 2026-04-22 09:36 | 42.58037 | -7.71963 | 20372 ft | 388 kts | 126° |
| 2026-04-22 09:37 | 42.56583 | -7.68868 | 20987 ft | 392 kts | 126° |
| 2026-04-22 09:37 | 42.55111 | -7.65741 | 21575 ft | 395 kts | 126° |
| 2026-04-22 09:37 | 42.53621 | -7.62577 | 22146 ft | 399 kts | 126° |
| 2026-04-22 09:37 | 42.52121 | -7.59394 | 22696 ft | 403 kts | 127° |
| 2026-04-22 09:38 | 42.50605 | -7.56177 | 23224 ft | 407 kts | 127° |
| 2026-04-22 09:38 | 42.49074 | -7.52933 | 23744 ft | 410 kts | 127° |
| 2026-04-22 09:38 | 42.47531 | -7.49672 | 24252 ft | 414 kts | 127° |
| 2026-04-22 09:38 | 42.45961 | -7.46383 | 24733 ft | 417 kts | 127° |
| 2026-04-22 09:39 | 42.44355 | -7.43108 | 25210 ft | 419 kts | 128° |
| 2026-04-22 09:39 | 42.42717 | -7.39814 | 25668 ft | 423 kts | 128° |
| 2026-04-22 09:39 | 42.41065 | -7.36505 | 26099 ft | 426 kts | 128° |
| 2026-04-22 09:39 | 42.39401 | -7.33171 | 26525 ft | 430 kts | 128° |
| 2026-04-22 09:40 | 42.37725 | -7.29813 | 26948 ft | 432 kts | 128° |
| 2026-04-22 09:40 | 42.36037 | -7.26425 | 27374 ft | 435 kts | 128° |
| 2026-04-22 09:40 | 42.34362 | -7.23063 | 27752 ft | 438 kts | 128° |
| 2026-04-22 09:40 | 42.32654 | -7.19636 | 28158 ft | 440 kts | 128° |
| 2026-04-22 09:41 | 42.30949 | -7.16218 | 28717 ft | 438 kts | 128° |
| 2026-04-22 09:41 | 42.29250 | -7.12811 | 29288 ft | 435 kts | 128° |
| 2026-04-22 09:41 | 42.27557 | -7.09420 | 29783 ft | 435 kts | 128° |
| 2026-04-22 09:41 | 42.25862 | -7.06032 | 30225 ft | 435 kts | 128° |
| 2026-04-22 09:42 | 42.24167 | -7.02649 | 30674 ft | 435 kts | 128° |
| 2026-04-22 09:42 | 42.22475 | -6.99275 | 31120 ft | 434 kts | 128° |
| 2026-04-22 09:42 | 42.20780 | -6.95899 | 31517 ft | 435 kts | 128° |
| 2026-04-22 09:42 | 42.19083 | -6.92523 | 31922 ft | 434 kts | 128° |
| 2026-04-22 09:43 | 42.17390 | -6.89157 | 32348 ft | 433 kts | 128° |
| 2026-04-22 09:43 | 42.15696 | -6.85796 | 32728 ft | 434 kts | 128° |
| 2026-04-22 09:43 | 42.14000 | -6.82435 | 33017 ft | 436 kts | 128° |
| 2026-04-22 09:43 | 42.12287 | -6.79045 | 33012 ft | 437 kts | 128° |
| 2026-04-22 09:44 | 42.08880 | -6.72308 | 33032 ft | 434 kts | 128° |
| 2026-04-22 09:44 | 42.05477 | -6.65594 | 33032 ft | 435 kts | 127° |
| 2026-04-22 09:45 | 42.02054 | -6.58860 | 33032 ft | 436 kts | 127° |
| 2026-04-22 09:45 | 41.98629 | -6.52132 | 33027 ft | 437 kts | 127° |
| 2026-04-22 09:46 | 41.95216 | -6.45441 | 33027 ft | 437 kts | 127° |
| 2026-04-22 09:46 | 41.91778 | -6.38717 | 33023 ft | 436 kts | 127° |
| 2026-04-22 09:47 | 41.88342 | -6.32012 | 33031 ft | 436 kts | 127° |
| 2026-04-22 09:47 | 41.84903 | -6.25313 | 33022 ft | 436 kts | 127° |
| 2026-04-22 09:48 | 41.81457 | -6.18621 | 33023 ft | 435 kts | 127° |
| 2026-04-22 09:48 | 41.78013 | -6.11962 | 33027 ft | 435 kts | 127° |
| 2026-04-22 09:49 | 41.74570 | -6.05310 | 33029 ft | 434 kts | 127° |
| 2026-04-22 09:49 | 41.71128 | -5.98670 | 33036 ft | 434 kts | 127° |
| 2026-04-22 09:50 | 41.67676 | -5.92026 | 33027 ft | 435 kts | 127° |
| 2026-04-22 09:50 | 41.64219 | -5.85387 | 33040 ft | 435 kts | 127° |
| 2026-04-22 09:51 | 41.60757 | -5.78751 | 33040 ft | 435 kts | 127° |
| 2026-04-22 09:51 | 41.57291 | -5.72122 | 33047 ft | 435 kts | 127° |
| 2026-04-22 09:52 | 41.53818 | -5.65494 | 33048 ft | 436 kts | 127° |
| 2026-04-22 09:52 | 41.50314 | -5.58894 | 33047 ft | 436 kts | 128° |
| 2026-04-22 09:53 | 41.46775 | -5.52342 | 33046 ft | 435 kts | 128° |
| 2026-04-22 09:53 | 41.43252 | -5.45836 | 33050 ft | 436 kts | 128° |
| 2026-04-22 09:54 | 41.39702 | -5.39279 | 33048 ft | 436 kts | 128° |
| 2026-04-22 09:54 | 41.36149 | -5.32722 | 33042 ft | 437 kts | 128° |
| 2026-04-22 09:55 | 41.32592 | -5.26170 | 33040 ft | 437 kts | 128° |
| 2026-04-22 09:55 | 41.29030 | -5.19625 | 33045 ft | 437 kts | 128° |
| 2026-04-22 09:56 | 41.25466 | -5.13089 | 33049 ft | 437 kts | 128° |
| 2026-04-22 09:56 | 41.21898 | -5.06557 | 33044 ft | 436 kts | 128° |
| 2026-04-22 09:57 | 41.18333 | -5.00049 | 33048 ft | 436 kts | 128° |
| 2026-04-22 09:57 | 41.14761 | -4.93539 | 33047 ft | 436 kts | 128° |
| 2026-04-22 09:58 | 41.11181 | -4.87029 | 33046 ft | 437 kts | 128° |
| 2026-04-22 09:58 | 41.07599 | -4.80529 | 33057 ft | 437 kts | 128° |
| 2026-04-22 09:59 | 41.04011 | -4.74031 | 33053 ft | 437 kts | 128° |
| 2026-04-22 09:59 | 41.00415 | -4.67533 | 33056 ft | 437 kts | 128° |
| 2026-04-22 10:00 | 40.96820 | -4.61050 | 33058 ft | 437 kts | 128° |
| 2026-04-22 10:00 | 40.93209 | -4.54557 | 33057 ft | 438 kts | 128° |
| 2026-04-22 10:01 | 40.89596 | -4.48068 | 33065 ft | 438 kts | 128° |
| 2026-04-22 10:01 | 40.86001 | -4.41624 | 33063 ft | 439 kts | 128° |
| 2026-04-22 10:02 | 40.82374 | -4.35142 | 33064 ft | 439 kts | 128° |
| 2026-04-22 10:02 | 40.78745 | -4.28666 | 33063 ft | 438 kts | 128° |
| 2026-04-22 10:03 | 40.75116 | -4.22205 | 33070 ft | 438 kts | 128° |
| 2026-04-22 10:03 | 40.71488 | -4.15757 | 33076 ft | 438 kts | 128° |
| 2026-04-22 10:04 | 40.67851 | -4.09311 | 33069 ft | 439 kts | 128° |
| 2026-04-22 10:04 | 40.64210 | -4.02865 | 33074 ft | 438 kts | 128° |
| 2026-04-22 10:05 | 40.60566 | -3.96429 | 33071 ft | 438 kts | 128° |
| 2026-04-22 10:05 | 40.56918 | -3.90000 | 33061 ft | 438 kts | 128° |
| 2026-04-22 10:06 | 40.53290 | -3.83619 | 33067 ft | 438 kts | 128° |
| 2026-04-22 10:06 | 40.49642 | -3.77219 | 33063 ft | 438 kts | 128° |
| 2026-04-22 10:07 | 40.45991 | -3.70821 | 33065 ft | 438 kts | 128° |
| 2026-04-22 10:07 | 40.42334 | -3.64428 | 33054 ft | 438 kts | 128° |
| 2026-04-22 10:08 | 40.38672 | -3.58039 | 33050 ft | 438 kts | 128° |
| 2026-04-22 10:08 | 40.35006 | -3.51657 | 33050 ft | 438 kts | 128° |
| 2026-04-22 10:09 | 40.31337 | -3.45282 | 33046 ft | 438 kts | 128° |
| 2026-04-22 10:09 | 40.27664 | -3.38911 | 33048 ft | 437 kts | 128° |
| 2026-04-22 10:10 | 40.24655 | -3.32127 | 33037 ft | 430 kts | 110° |
| 2026-04-22 10:10 | 40.23268 | -3.25877 | 33054 ft | 431 kts | 105° |
| 2026-04-22 10:11 | 40.21691 | -3.18400 | 32664 ft | 422 kts | 106° |
| 2026-04-22 10:11 | 40.20881 | -3.14712 | 32196 ft | 421 kts | 106° |
| 2026-04-22 10:11 | 40.20061 | -3.11028 | 31695 ft | 422 kts | 107° |
| 2026-04-22 10:12 | 40.19242 | -3.07353 | 31274 ft | 420 kts | 107° |
| 2026-04-22 10:12 | 40.18427 | -3.03699 | 30920 ft | 417 kts | 107° |
| 2026-04-22 10:12 | 40.17617 | -3.00067 | 30576 ft | 414 kts | 107° |
| 2026-04-22 10:12 | 40.16814 | -2.96469 | 30208 ft | 411 kts | 107° |
| 2026-04-22 10:13 | 40.16014 | -2.92889 | 29801 ft | 409 kts | 107° |
| 2026-04-22 10:13 | 40.15218 | -2.89329 | 29404 ft | 407 kts | 107° |
| 2026-04-22 10:13 | 40.14428 | -2.85797 | 29025 ft | 404 kts | 108° |
| 2026-04-22 10:13 | 40.13641 | -2.82286 | 28662 ft | 400 kts | 108° |
| 2026-04-22 10:14 | 40.12860 | -2.78806 | 28266 ft | 398 kts | 108° |
| 2026-04-22 10:14 | 40.12080 | -2.75339 | 27878 ft | 396 kts | 108° |
| 2026-04-22 10:14 | 40.11306 | -2.71901 | 27527 ft | 393 kts | 108° |
| 2026-04-22 10:14 | 40.10536 | -2.68492 | 27165 ft | 390 kts | 108° |
| 2026-04-22 10:15 | 40.09771 | -2.65102 | 26782 ft | 388 kts | 108° |
| 2026-04-22 10:15 | 40.09010 | -2.61741 | 26407 ft | 386 kts | 108° |
| 2026-04-22 10:15 | 40.08251 | -2.58388 | 26028 ft | 384 kts | 108° |
| 2026-04-22 10:15 | 40.07495 | -2.55057 | 25669 ft | 381 kts | 108° |
| 2026-04-22 10:16 | 40.06744 | -2.51753 | 25318 ft | 378 kts | 108° |
| 2026-04-22 10:16 | 40.05996 | -2.48469 | 24959 ft | 376 kts | 109° |
| 2026-04-22 10:16 | 40.05254 | -2.45213 | 24575 ft | 374 kts | 109° |
| 2026-04-22 10:16 | 40.04512 | -2.41961 | 24209 ft | 372 kts | 109° |
| 2026-04-22 10:17 | 40.03775 | -2.38738 | 23846 ft | 369 kts | 109° |
| 2026-04-22 10:17 | 40.03044 | -2.35540 | 23467 ft | 368 kts | 109° |
| 2026-04-22 10:17 | 40.02311 | -2.32343 | 23110 ft | 366 kts | 109° |
| 2026-04-22 10:17 | 40.01592 | -2.29213 | 22773 ft | 363 kts | 109° |
| 2026-04-22 10:18 | 40.00871 | -2.26072 | 22433 ft | 360 kts | 109° |
| 2026-04-22 10:18 | 40.00144 | -2.22912 | 22076 ft | 358 kts | 109° |
| 2026-04-22 10:18 | 39.99440 | -2.19854 | 21732 ft | 356 kts | 108° |
| 2026-04-22 10:18 | 39.98727 | -2.16767 | 21397 ft | 354 kts | 109° |
| 2026-04-22 10:19 | 39.98020 | -2.13712 | 21063 ft | 351 kts | 108° |
| 2026-04-22 10:19 | 39.97315 | -2.10673 | 20724 ft | 349 kts | 109° |
| 2026-04-22 10:19 | 39.96617 | -2.07662 | 20371 ft | 346 kts | 108° |
| 2026-04-22 10:19 | 39.95922 | -2.04667 | 20028 ft | 344 kts | 109° |
| 2026-04-22 10:20 | 39.95228 | -2.01687 | 19681 ft | 342 kts | 108° |
| 2026-04-22 10:20 | 39.94540 | -1.98733 | 19359 ft | 340 kts | 108° |
| 2026-04-22 10:20 | 39.93856 | -1.95801 | 19027 ft | 337 kts | 108° |
| 2026-04-22 10:20 | 39.93174 | -1.92882 | 18693 ft | 335 kts | 108° |
| 2026-04-22 10:21 | 39.92496 | -1.89984 | 18376 ft | 333 kts | 108° |
| 2026-04-22 10:21 | 39.91822 | -1.87103 | 18053 ft | 331 kts | 108° |
| 2026-04-22 10:21 | 39.91154 | -1.84252 | 17725 ft | 328 kts | 108° |
| 2026-04-22 10:21 | 39.90490 | -1.81419 | 17382 ft | 327 kts | 108° |
| 2026-04-22 10:22 | 39.89824 | -1.78584 | 17024 ft | 326 kts | 109° |
| 2026-04-22 10:22 | 39.89162 | -1.75766 | 16671 ft | 325 kts | 109° |
| 2026-04-22 10:22 | 39.88501 | -1.72961 | 16325 ft | 324 kts | 109° |
| 2026-04-22 10:22 | 39.87843 | -1.70166 | 15990 ft | 322 kts | 109° |
| 2026-04-22 10:23 | 39.87187 | -1.67384 | 15649 ft | 321 kts | 109° |
| 2026-04-22 10:23 | 39.86540 | -1.64649 | 15313 ft | 320 kts | 109° |
| 2026-04-22 10:23 | 39.85876 | -1.61843 | 14980 ft | 319 kts | 109° |
| 2026-04-22 10:23 | 39.85226 | -1.59095 | 14639 ft | 318 kts | 110° |
| 2026-04-22 10:24 | 39.84576 | -1.56354 | 14318 ft | 316 kts | 110° |
| 2026-04-22 10:24 | 39.83937 | -1.53659 | 13994 ft | 315 kts | 110° |
| 2026-04-22 10:24 | 39.83290 | -1.50937 | 13672 ft | 314 kts | 110° |
| 2026-04-22 10:24 | 39.82645 | -1.48227 | 13323 ft | 314 kts | 110° |
| 2026-04-22 10:25 | 39.82001 | -1.45524 | 13016 ft | 312 kts | 110° |
| 2026-04-22 10:25 | 39.81361 | -1.42837 | 12725 ft | 310 kts | 110° |
| 2026-04-22 10:25 | 39.80721 | -1.40158 | 12416 ft | 310 kts | 110° |
| 2026-04-22 10:25 | 39.80085 | -1.37484 | 12105 ft | 308 kts | 110° |
| 2026-04-22 10:26 | 39.79453 | -1.34833 | 11798 ft | 307 kts | 111° |
| 2026-04-22 10:26 | 39.78819 | -1.32189 | 11497 ft | 305 kts | 111° |
| 2026-04-22 10:26 | 39.78189 | -1.29563 | 11193 ft | 303 kts | 110° |
| 2026-04-22 10:26 | 39.77562 | -1.26953 | 10879 ft | 302 kts | 110° |
| 2026-04-22 10:27 | 39.76933 | -1.24348 | 10594 ft | 302 kts | 110° |
| 2026-04-22 10:27 | 39.76299 | -1.21756 | 10286 ft | 300 kts | 110° |
| 2026-04-22 10:27 | 39.75535 | -1.19250 | 10045 ft | 295 kts | 127° |
| 2026-04-22 10:27 | 39.74260 | -1.17217 | 9955 ft | 290 kts | 125° |
| 2026-04-22 10:28 | 39.73583 | -1.14770 | 9607 ft | 289 kts | 103° |
| 2026-04-22 10:28 | 39.73274 | -1.12187 | 9155 ft | 290 kts | 100° |
| 2026-04-22 10:28 | 39.72944 | -1.09615 | 8664 ft | 287 kts | 103° |
| 2026-04-22 10:28 | 39.72514 | -1.07083 | 8242 ft | 288 kts | 105° |
| 2026-04-22 10:29 | 39.71524 | -1.02310 | 7887 ft | 277 kts | 107° |
| 2026-04-22 10:29 | 39.70779 | -0.98935 | 7649 ft | 259 kts | 111° |
| 2026-04-22 10:29 | 39.69972 | -0.96815 | 6988 ft | 268 kts | 123° |
| 2026-04-22 10:29 | 39.68954 | -0.94783 | 6679 ft | 262 kts | 125° |
| 2026-04-22 10:30 | 39.67252 | -0.91441 | 6255 ft | 251 kts | 124° |
| 2026-04-22 10:30 | 39.66308 | -0.89547 | 5945 ft | 248 kts | 124° |
| 2026-04-22 10:30 | 39.65379 | -0.87669 | 5643 ft | 246 kts | 123° |
| 2026-04-22 10:30 | 39.64473 | -0.85810 | 5461 ft | 239 kts | 123° |
| 2026-04-22 10:31 | 39.63619 | -0.84053 | 5370 ft | 222 kts | 123° |
| 2026-04-22 10:31 | 39.62593 | -0.81933 | 5138 ft | 207 kts | 124° |
| 2026-04-22 10:31 | 39.61063 | -0.78757 | 4556 ft | 201 kts | 123° |
| 2026-04-22 10:31 | 39.60017 | -0.76588 | 4308 ft | 190 kts | 123° |
| 2026-04-22 10:32 | 39.59301 | -0.75104 | 4113 ft | 183 kts | 123° |
| 2026-04-22 10:32 | 39.58633 | -0.73717 | 3928 ft | 176 kts | 123° |
| 2026-04-22 10:32 | 39.58068 | -0.72327 | 3771 ft | 177 kts | 117° |
| 2026-04-22 10:32 | 39.57558 | -0.70872 | 3562 ft | 178 kts | 116° |
| 2026-04-22 10:33 | 39.57027 | -0.69418 | 3387 ft | 178 kts | 117° |
| 2026-04-22 10:33 | 39.56496 | -0.67992 | 3187 ft | 173 kts | 117° |
| 2026-04-22 10:33 | 39.55969 | -0.66611 | 3041 ft | 168 kts | 118° |
| 2026-04-22 10:33 | 39.55444 | -0.65274 | 2826 ft | 165 kts | 117° |
| 2026-04-22 10:34 | 39.54956 | -0.63976 | 2667 ft | 154 kts | 117° |
| 2026-04-22 10:34 | 39.54478 | -0.62723 | 2389 ft | 155 kts | 117° |
| 2026-04-22 10:34 | 39.54013 | -0.61492 | 2219 ft | 152 kts | 117° |
| 2026-04-22 10:34 | 39.53539 | -0.60252 | 2006 ft | 154 kts | 117° |
| 2026-04-22 10:35 | 39.53063 | -0.59006 | 1815 ft | 156 kts | 117° |
| 2026-04-22 10:35 | 39.52586 | -0.57749 | 1572 ft | 152 kts | 117° |
| 2026-04-22 10:35 | 39.52123 | -0.56540 | 1413 ft | 151 kts | 117° |
| 2026-04-22 10:35 | 39.51654 | -0.55314 | 1183 ft | 152 kts | 117° |
| 2026-04-22 10:36 | 39.51189 | -0.54098 | 995 ft | 150 kts | 117° |
| 2026-04-22 10:36 | 39.50731 | -0.52886 | 777 ft | 150 kts | 116° |
| 2026-04-22 10:36 | 39.50275 | -0.51671 | 571 ft | 150 kts | 117° |
| 2026-04-22 10:36 | 39.49815 | -0.50464 | 358 ft | 148 kts | 117° |
| 2026-04-22 10:37 | 39.49369 | -0.49291 | 236 ft | 140 kts | 117° |
| 2026-04-22 10:37 | 39.48818 | -0.47861 | 209 ft | 28 kts | 116° |
| 2026-04-22 10:37 | 39.48734 | -0.47644 | 201 ft | 26 kts | 116° |
| 2026-04-22 10:38 | 39.48667 | -0.47464 | 201 ft | 17 kts | 113° |
| 2026-04-22 10:38 | 39.48653 | -0.47313 | 193 ft | 17 kts | 81° |
| 2026-04-22 10:38 | 39.48719 | -0.47194 | 202 ft | 17 kts | 22° |
| 2026-04-22 10:38 | 39.48832 | -0.47211 | 196 ft | 16 kts | 336° |
| 2026-04-22 10:39 | 39.48920 | -0.47283 | 203 ft | 8 kts | 303° |
| 2026-04-22 10:39 | 39.48965 | -0.47304 | 202 ft | 8 kts | 12° |
| 2026-04-22 10:39 | 39.49016 | -0.47289 | 192 ft | 7 kts | 12° |
| 2026-04-22 10:39 | 39.49035 | -0.47283 | 192 ft | 0 kts | 13° |